Time;durP1;ratioP1;P1;durP2;ratioP2;P2;SDS_P1;SDS_P2;PMS_P1;PMS_P2;Temp;Humidity;BMP_temperature;BMP_pressure;BME280_temperature;BME280_humidity;BME280_pressure;Samples;Min_cycle;Max_cycle;Signal;HPM_P1;HPM_P2
2021/10/23 00:00:53;;;;;;;4.03;1.53;;;;;;;9.57;73.28;95857.22;1768303;81;21124;-70
2021/10/23 00:03:20;;;;;;;2.33;1.00;;;;;;;9.73;71.66;95856.19;1769094;81;21171;-71
2021/10/23 00:05:47;;;;;;;4.00;1.70;;;;;;;9.87;71.88;95863.47;1767743;80;21011;-68
2021/10/23 00:08:13;;;;;;;3.17;1.97;;;;;;;10.00;69.05;95862.01;1764261;80;21136;-70
2021/10/23 00:10:40;;;;;;;3.73;1.80;;;;;;;10.10;69.58;95858.36;1774820;80;21054;-69
2021/10/23 00:13:07;;;;;;;3.40;1.63;;;;;;;10.16;68.97;95858.31;1775909;81;21082;-70
2021/10/23 00:15:34;;;;;;;2.60;1.43;;;;;;;10.20;68.92;95861.31;1776347;80;20984;-70
2021/10/23 00:18:01;;;;;;;3.97;2.00;;;;;;;10.18;68.58;95867.94;1776412;81;21556;-70
2021/10/23 00:20:28;;;;;;;3.70;1.60;;;;;;;10.19;69.26;95870.99;1773893;80;21017;-70
2021/10/23 00:22:55;;;;;;;3.67;1.63;;;;;;;10.19;69.42;95868.36;1766255;80;21101;-70
2021/10/23 00:25:21;;;;;;;3.47;1.70;;;;;;;10.14;69.63;95874.13;1776638;80;21047;-70
2021/10/23 00:27:49;;;;;;;3.43;1.80;;;;;;;10.14;69.60;95874.59;1765973;80;20984;-70
2021/10/23 00:30:16;;;;;;;6.47;2.00;;;;;;;10.17;69.73;95876.73;1765553;80;21575;-71
2021/10/23 00:32:43;;;;;;;4.00;1.50;;;;;;;10.19;69.50;95876.72;1774049;80;21046;-70
2021/10/23 00:35:10;;;;;;;3.77;1.90;;;;;;;10.20;69.91;95879.77;1779838;80;21015;-71
2021/10/23 00:37:37;;;;;;;3.37;1.20;;;;;;;10.16;70.14;95882.04;1770221;80;21036;-70
2021/10/23 00:40:06;;;;;;;2.17;1.30;;;;;;;10.13;70.46;95881.63;1773870;80;21086;-71
2021/10/23 00:42:34;;;;;;;4.13;1.70;;;;;;;10.09;70.50;95876.41;1766622;80;21016;-70
2021/10/23 00:45:02;;;;;;;3.60;1.50;;;;;;;10.06;70.61;95878.64;1777103;81;21015;-70
2021/10/23 00:47:28;;;;;;;2.40;1.70;;;;;;;10.05;70.58;95879.51;1776848;80;21027;-69
2021/10/23 00:49:55;;;;;;;4.13;2.10;;;;;;;10.03;70.78;95878.68;1777154;81;20987;-70
2021/10/23 00:52:24;;;;;;;4.77;2.00;;;;;;;10.02;70.68;95873.41;1765946;80;21013;-70
2021/10/23 00:54:52;;;;;;;5.43;2.10;;;;;;;10.04;70.53;95868.55;1769504;80;21094;-69
2021/10/23 00:57:20;;;;;;;4.73;1.80;;;;;;;10.05;70.53;95872.05;1771866;80;21023;-70
2021/10/23 00:59:46;;;;;;;3.40;1.80;;;;;;;10.04;70.74;95873.83;1772601;80;21562;-71
2021/10/23 01:02:13;;;;;;;9.00;2.17;;;;;;;10.00;71.42;95886.59;1768139;80;21128;-70
2021/10/23 01:04:41;;;;;;;6.20;2.40;;;;;;;10.03;71.08;95877.78;1765315;80;21523;-70
2021/10/23 01:07:09;;;;;;;5.43;2.47;;;;;;;10.05;71.34;95892.69;1772030;80;21018;-70
2021/10/23 01:09:39;;;;;;;4.37;2.57;;;;;;;10.09;71.17;95886.50;1766681;80;21038;-70
2021/10/23 01:12:09;;;;;;;4.23;2.30;;;;;;;10.14;70.97;95886.45;1770267;80;21108;-70
2021/10/23 01:14:37;;;;;;;4.37;2.40;;;;;;;10.18;71.13;95877.17;1778120;80;21007;-71
2021/10/23 01:17:04;;;;;;;4.13;2.17;;;;;;;10.23;71.02;95882.39;1770589;80;21053;-71
2021/10/23 01:19:31;;;;;;;3.57;2.47;;;;;;;10.29;70.81;95884.11;1770847;81;21077;-70
2021/10/23 01:21:58;;;;;;;5.67;2.20;;;;;;;10.32;70.83;95878.33;1765823;80;21144;-70
2021/10/23 01:24:25;;;;;;;4.43;2.83;;;;;;;10.37;70.95;95878.28;1776846;81;20971;-69
2021/10/23 01:26:52;;;;;;;5.93;2.60;;;;;;;10.35;71.07;95870.37;1775821;81;21056;-70
2021/10/23 01:29:20;;;;;;;4.60;2.77;;;;;;;10.37;71.21;95859.81;1772566;80;20995;-70
2021/10/23 01:31:51;;;;;;;4.70;2.00;;;;;;;10.33;71.28;95853.72;1779938;80;20987;-70
2021/10/23 01:34:26;;;;;;;3.53;1.90;;;;;;;10.29;71.53;95863.88;1772615;81;21050;-70
2021/10/23 01:36:58;;;;;;;3.93;2.37;;;;;;;10.18;72.17;95868.39;1762094;80;21528;-70
2021/10/23 01:39:27;;;;;;;4.60;2.73;;;;;;;10.10;72.26;95870.23;1769149;80;21556;-70
2021/10/23 01:41:55;;;;;;;4.27;2.60;;;;;;;10.09;72.17;95873.32;1777057;81;21066;-70
2021/10/23 01:44:33;;;;;;;7.47;2.60;;;;;;;10.03;72.47;95875.14;1779134;80;21112;-70
2021/10/23 01:47:02;;;;;;;6.50;2.50;;;;;;;9.92;72.61;95873.51;1773592;80;21071;-70
2021/10/23 01:49:29;;;;;;;4.93;2.80;;;;;;;9.85;72.84;95877.13;1768493;80;21065;-70
2021/10/23 01:51:56;;;;;;;5.77;2.20;;;;;;;9.80;73.57;95872.33;1775727;80;21120;-71
2021/10/23 01:54:22;;;;;;;2.30;1.90;;;;;;;9.65;73.18;95875.13;1767363;80;20994;-71
2021/10/23 01:56:49;;;;;;;4.67;2.50;;;;;;;9.51;74.23;95869.57;1763932;80;21045;-70
2021/10/23 01:59:16;;;;;;;4.63;2.33;;;;;;;9.45;74.20;95884.55;1765936;80;21054;-71
2021/10/23 02:01:42;;;;;;;6.90;2.50;;;;;;;9.32;74.35;95882.47;1776935;81;21023;-70
2021/10/23 02:04:09;;;;;;;3.47;2.00;;;;;;;9.25;74.42;95889.58;1775315;81;21019;-69
2021/10/23 02:06:36;;;;;;;3.00;2.20;;;;;;;9.14;74.37;95886.14;1768621;80;20998;-70
2021/10/23 02:09:04;;;;;;;4.37;2.00;;;;;;;8.98;74.80;95885.41;1771488;81;21556;-70
2021/10/23 02:11:30;;;;;;;5.17;2.67;;;;;;;8.89;74.92;95888.09;1765024;80;21097;-69
2021/10/23 02:13:57;;;;;;;4.30;2.20;;;;;;;8.84;74.73;95903.04;1770994;81;21560;-69
2021/10/23 02:16:24;;;;;;;4.03;2.53;;;;;;;8.76;75.39;95908.36;1768545;80;21029;-70
2021/10/23 02:18:50;;;;;;;3.50;1.83;;;;;;;8.61;75.59;95903.20;1778013;80;21039;-69
2021/10/23 02:21:17;;;;;;;4.77;2.90;;;;;;;8.47;76.01;95900.66;1771442;80;21037;-70
2021/10/23 02:23:43;;;;;;;5.20;3.47;;;;;;;8.39;77.28;95894.51;1766503;80;21045;-70
2021/10/23 02:26:10;;;;;;;3.30;2.77;;;;;;;8.36;76.56;95890.14;1770298;80;21051;-70
2021/10/23 02:28:37;;;;;;;5.17;3.30;;;;;;;8.37;76.76;95888.41;1766743;80;21070;-71
2021/10/23 02:31:04;;;;;;;6.53;3.00;;;;;;;8.28;77.97;95892.39;1770515;81;21027;-70
2021/10/23 02:33:31;;;;;;;3.53;2.70;;;;;;;8.22;77.79;95900.74;1766373;80;21053;-71
2021/10/23 02:35:58;;;;;;;4.33;2.50;;;;;;;8.21;77.89;95913.46;1768326;80;20983;-71
2021/10/23 02:38:24;;;;;;;4.73;2.83;;;;;;;8.24;78.01;95923.09;1771968;80;20992;-70
2021/10/23 02:40:52;;;;;;;5.50;3.50;;;;;;;8.31;79.24;95921.29;1771907;81;21465;-70
2021/10/23 02:43:18;;;;;;;7.70;4.70;;;;;;;8.45;79.70;95926.95;1774245;81;20998;-69
2021/10/23 02:45:46;;;;;;;7.40;4.37;;;;;;;8.67;79.67;95917.64;1769373;80;21100;-69
2021/10/23 02:48:13;;;;;;;7.03;4.97;;;;;;;8.88;79.37;95906.09;1767374;81;21020;-69
2021/10/23 02:50:40;;;;;;;8.13;3.97;;;;;;;9.05;78.87;95908.16;1775752;81;21074;-69
2021/10/23 02:53:06;;;;;;;7.33;3.87;;;;;;;9.14;78.32;95899.75;1775709;81;21040;-70
2021/10/23 02:55:33;;;;;;;6.13;3.80;;;;;;;9.14;77.99;95907.20;1765393;80;21078;-70
2021/10/23 02:58:00;;;;;;;9.13;4.80;;;;;;;9.20;78.06;95894.45;1779815;81;21015;-69
2021/10/23 03:00:27;;;;;;;5.67;3.67;;;;;;;9.24;77.96;95896.16;1768659;80;21534;-70
2021/10/23 03:02:53;;;;;;;5.17;3.20;;;;;;;9.21;77.43;95895.74;1771894;80;21004;-70
2021/10/23 03:05:21;;;;;;;4.53;3.17;;;;;;;9.09;77.01;95911.19;1771585;80;20953;-70
2021/10/23 03:07:47;;;;;;;8.20;4.10;;;;;;;8.97;77.34;95912.62;1771135;80;21063;-70
2021/10/23 03:10:14;;;;;;;5.73;4.00;;;;;;;8.98;78.10;95909.09;1776523;80;21035;-70
2021/10/23 03:12:41;;;;;;;5.40;3.67;;;;;;;8.85;77.81;95914.02;1768609;80;21021;-71
2021/10/23 03:15:09;;;;;;;6.23;4.20;;;;;;;8.87;78.29;95918.83;1768212;81;21574;-70
2021/10/23 03:17:36;;;;;;;8.87;4.47;;;;;;;8.77;77.90;95925.01;1767700;80;21104;-70
2021/10/23 03:20:05;;;;;;;5.07;3.50;;;;;;;8.76;78.15;95924.59;1771323;80;21035;-70
2021/10/23 03:22:31;;;;;;;8.33;4.53;;;;;;;8.69;77.55;95925.50;1776331;81;20999;-70
2021/10/23 03:24:58;;;;;;;6.30;4.50;;;;;;;8.60;77.72;95918.56;1754040;81;21086;-69
2021/10/23 03:27:25;;;;;;;6.43;4.03;;;;;;;8.52;77.48;95919.92;1764121;80;21018;-69
2021/10/23 03:29:52;;;;;;;5.20;3.77;;;;;;;8.45;77.75;95918.20;1766576;80;21015;-69
2021/10/23 03:32:19;;;;;;;6.07;4.27;;;;;;;8.37;77.46;95921.28;1768223;80;21064;-70
2021/10/23 03:34:46;;;;;;;5.50;4.07;;;;;;;8.31;77.50;95923.92;1763844;80;21022;-69
2021/10/23 03:37:13;;;;;;;6.70;4.17;;;;;;;8.22;77.41;95930.10;1765259;81;21060;-69
2021/10/23 03:39:42;;;;;;;6.73;3.20;;;;;;;8.15;77.29;95937.57;1772945;81;21014;-70
2021/10/23 03:42:09;;;;;;;4.13;3.10;;;;;;;8.06;77.05;95928.39;1768840;80;21066;-70
2021/10/23 03:44:35;;;;;;;5.13;3.33;;;;;;;7.87;77.48;95927.15;1774381;80;21019;-70
2021/10/23 03:47:02;;;;;;;6.43;3.30;;;;;;;7.77;77.62;95916.23;1763976;80;21061;-69
2021/10/23 03:49:29;;;;;;;5.90;3.70;;;;;;;7.57;79.21;95924.15;1767986;80;21037;-70
2021/10/23 03:51:56;;;;;;;9.73;3.90;;;;;;;7.48;78.79;95935.97;1766263;80;21053;-70
2021/10/23 03:54:22;;;;;;;4.63;3.77;;;;;;;7.36;79.95;95935.12;1768634;80;21039;-70
2021/10/23 03:56:49;;;;;;;6.20;2.93;;;;;;;7.34;79.57;95946.49;1772202;81;20994;-69
2021/10/23 03:59:16;;;;;;;3.50;2.87;;;;;;;7.28;79.91;95949.10;1768007;80;21110;-69
2021/10/23 04:01:43;;;;;;;4.93;2.90;;;;;;;7.19;79.54;95953.93;1770232;80;21035;-69
2021/10/23 04:04:10;;;;;;;4.73;2.93;;;;;;;7.17;79.79;95962.23;1770739;80;21045;-69
2021/10/23 04:06:36;;;;;;;4.60;2.40;;;;;;;7.15;80.23;95970.53;1768589;80;21600;-69
2021/10/23 04:09:03;;;;;;;4.27;2.10;;;;;;;7.16;80.31;95968.37;1775791;81;21532;-70
2021/10/23 04:11:30;;;;;;;6.17;3.33;;;;;;;7.12;80.13;95977.09;1771045;80;21614;-69
2021/10/23 04:13:56;;;;;;;3.60;2.60;;;;;;;7.20;79.39;95966.61;1765248;79;21017;-70
2021/10/23 04:16:23;;;;;;;3.60;2.70;;;;;;;7.40;79.16;95959.61;1767774;80;21527;-70
2021/10/23 04:18:49;;;;;;;6.07;2.80;;;;;;;7.44;78.79;95961.36;1774346;81;21038;-70
2021/10/23 04:21:16;;;;;;;2.93;2.37;;;;;;;7.43;78.63;95953.48;1771916;80;21025;-70
2021/10/23 04:23:43;;;;;;;2.90;1.90;;;;;;;7.36;78.53;95953.49;1774252;81;21112;-70
2021/10/23 04:26:10;;;;;;;5.23;2.93;;;;;;;7.32;78.35;95942.55;1766694;80;21441;-70
2021/10/23 04:28:36;;;;;;;4.63;2.57;;;;;;;7.23;78.35;95943.88;1773681;80;21005;-71
2021/10/23 04:31:03;;;;;;;2.67;2.30;;;;;;;7.25;76.24;95938.61;1778058;80;21018;-70
2021/10/23 04:33:29;;;;;;;9.13;3.30;;;;;;;7.31;76.50;95948.69;1777237;80;21061;-70
2021/10/23 04:35:56;;;;;;;4.50;2.13;;;;;;;7.33;76.64;95946.94;1773353;80;20992;-69
2021/10/23 04:38:24;;;;;;;3.03;2.27;;;;;;;7.36;75.38;95956.56;1769648;80;21072;-69
2021/10/23 04:40:51;;;;;;;7.87;2.70;;;;;;;7.28;75.56;95960.50;1764456;80;21487;-69
2021/10/23 04:43:18;;;;;;;6.57;3.00;;;;;;;7.27;75.23;95970.98;1764064;80;21001;-69
2021/10/23 04:45:44;;;;;;;8.27;3.60;;;;;;;7.24;74.91;95977.55;1772601;80;21007;-69
2021/10/23 04:48:11;;;;;;;5.53;4.07;;;;;;;7.24;74.75;95979.73;1774322;80;21796;-70
2021/10/23 04:50:38;;;;;;;9.20;4.83;;;;;;;7.29;74.58;95984.55;1779873;81;20988;-69
2021/10/23 04:53:04;;;;;;;8.23;3.00;;;;;;;7.33;74.50;95977.54;1768710;79;21053;-70
2021/10/23 04:55:31;;;;;;;5.13;3.40;;;;;;;7.25;74.30;95980.61;1764497;80;21025;-70
2021/10/23 04:57:58;;;;;;;8.37;3.93;;;;;;;7.19;74.57;95981.48;1773911;80;21534;-70
2021/10/23 05:00:25;;;;;;;7.00;3.80;;;;;;;7.07;74.99;95985.41;1766472;80;21027;-70
2021/10/23 05:02:53;;;;;;;7.63;4.43;;;;;;;6.99;75.29;95995.02;1774499;81;21054;-70
2021/10/23 05:05:20;;;;;;;6.60;3.97;;;;;;;6.96;75.21;95995.02;1767797;80;21046;-70
2021/10/23 05:07:47;;;;;;;6.90;4.17;;;;;;;6.99;75.21;96000.27;1773888;80;21073;-70
2021/10/23 05:10:14;;;;;;;9.23;4.60;;;;;;;7.03;75.09;96002.00;1771836;80;21151;-70
2021/10/23 05:12:41;;;;;;;10.83;4.73;;;;;;;7.06;75.01;96005.97;1765220;80;21075;-70
2021/10/23 05:15:08;;;;;;;8.20;4.70;;;;;;;7.11;75.03;96009.48;1769267;80;21060;-68
2021/10/23 05:17:35;;;;;;;6.17;4.10;;;;;;;7.13;75.01;95999.42;1774353;80;21046;-69
2021/10/23 05:20:05;;;;;;;10.73;5.70;;;;;;;7.11;75.09;96003.78;1775786;81;21038;-68
2021/10/23 05:22:32;;;;;;;8.13;3.80;;;;;;;7.13;75.35;96017.78;1779645;81;21074;-69
2021/10/23 05:24:59;;;;;;;14.43;6.03;;;;;;;7.11;75.31;96012.97;1771346;80;20989;-69
2021/10/23 05:27:26;;;;;;;9.10;4.83;;;;;;;7.11;75.43;96003.78;1769717;80;21027;-69
2021/10/23 05:29:53;;;;;;;11.13;5.30;;;;;;;7.14;75.71;96012.97;1775539;80;21018;-70
2021/10/23 05:32:19;;;;;;;17.60;7.60;;;;;;;7.28;75.90;96015.63;1773004;80;21013;-70
2021/10/23 05:34:46;;;;;;;12.03;5.13;;;;;;;7.36;75.89;96014.31;1770641;80;21866;-68
2021/10/23 05:37:13;;;;;;;7.17;4.77;;;;;;;7.49;75.83;96027.01;1769029;80;21028;-68
2021/10/23 05:39:40;;;;;;;7.63;4.50;;;;;;;7.66;75.50;96032.23;1773204;81;21035;-66
2021/10/23 05:42:07;;;;;;;5.63;4.17;;;;;;;7.78;74.87;96034.42;1770474;80;21038;-68
2021/10/23 05:44:33;;;;;;;5.93;4.60;;;;;;;7.89;74.26;96033.56;1764110;80;21036;-67
2021/10/23 05:47:00;;;;;;;5.87;3.80;;;;;;;7.95;73.30;96046.23;1763885;80;21022;-68
2021/10/23 05:49:27;;;;;;;9.17;5.33;;;;;;;7.97;71.98;96040.55;1767925;80;21029;-67
2021/10/23 05:51:54;;;;;;;10.20;6.23;;;;;;;7.99;72.27;96043.18;1769544;80;21108;-67
2021/10/23 05:54:22;;;;;;;9.10;5.67;;;;;;;8.02;72.21;96055.00;1764106;80;21600;-69
2021/10/23 05:56:48;;;;;;;10.47;5.27;;;;;;;8.02;72.04;96061.56;1773780;80;21050;-69
2021/10/23 05:59:15;;;;;;;8.20;4.60;;;;;;;7.96;72.25;96062.87;1766152;80;21591;-69
2021/10/23 06:01:47;;;;;;;8.60;5.17;;;;;;;7.91;71.95;96075.13;1771172;81;21023;-69
2021/10/23 06:04:14;;;;;;;5.93;4.60;;;;;;;7.92;71.73;96083.03;1773800;80;21627;-69
2021/10/23 06:06:42;;;;;;;12.10;6.93;;;;;;;7.92;71.17;96091.36;1775848;80;21066;-69
2021/10/23 06:09:08;;;;;;;8.67;5.93;;;;;;;7.94;71.10;96097.05;1741181;81;21099;-70
2021/10/23 06:11:35;;;;;;;8.57;5.43;;;;;;;7.96;71.20;96106.23;1768221;80;21062;-69
2021/10/23 06:14:03;;;;;;;7.63;4.77;;;;;;;7.90;70.92;96107.11;1776249;81;21026;-70
2021/10/23 06:16:30;;;;;;;8.00;5.00;;;;;;;7.87;71.20;96112.38;1769072;80;21080;-70
2021/10/23 06:18:56;;;;;;;9.33;4.90;;;;;;;7.90;71.29;96111.50;1767408;80;21017;-70
2021/10/23 06:21:23;;;;;;;7.53;5.20;;;;;;;7.93;71.07;96114.11;1772955;80;21066;-70
2021/10/23 06:23:50;;;;;;;8.17;4.40;;;;;;;7.96;70.73;96121.98;1736657;80;21112;-70
2021/10/23 06:26:17;;;;;;;8.13;3.80;;;;;;;7.98;69.81;96123.74;1769085;80;21575;-70
2021/10/23 06:28:43;;;;;;;6.53;3.77;;;;;;;8.00;69.62;96127.70;1765350;80;21123;-69
2021/10/23 06:31:11;;;;;;;14.40;7.47;;;;;;;8.02;69.42;96137.78;1774131;81;21059;-69
2021/10/23 06:33:37;;;;;;;7.93;3.70;;;;;;;8.09;69.11;96135.59;1767597;80;21044;-68
2021/10/23 06:36:04;;;;;;;6.93;3.70;;;;;;;8.16;68.28;96141.25;1766460;80;21467;-68
2021/10/23 06:38:31;;;;;;;5.93;3.40;;;;;;;8.24;67.63;96137.34;1775663;80;21022;-69
2021/10/23 06:40:57;;;;;;;5.57;3.20;;;;;;;8.33;66.35;96133.81;1769757;80;21023;-69
2021/10/23 06:43:25;;;;;;;6.87;3.13;;;;;;;8.43;66.60;96127.69;1778367;79;21019;-69
2021/10/23 06:45:52;;;;;;;5.53;3.10;;;;;;;8.49;66.01;96129.42;1776823;81;21058;-69
2021/10/23 06:48:19;;;;;;;10.70;3.50;;;;;;;8.56;65.43;96132.04;1765623;80;21027;-69
2021/10/23 06:50:46;;;;;;;6.23;2.90;;;;;;;8.63;63.64;96134.23;1764290;80;21567;-70
2021/10/23 06:53:13;;;;;;;12.73;4.40;;;;;;;8.66;63.27;96137.71;1764100;80;21018;-69
2021/10/23 06:55:40;;;;;;;28.33;10.80;;;;;;;8.71;63.37;96140.34;1754972;80;21574;-70
2021/10/23 06:58:07;;;;;;;7.60;3.87;;;;;;;8.76;62.90;96145.15;1769672;81;20987;-70
2021/10/23 07:00:34;;;;;;;22.43;8.17;;;;;;;8.77;61.18;96151.28;1772944;81;21015;-70
2021/10/23 07:03:00;;;;;;;20.60;7.80;;;;;;;8.75;59.87;96147.36;1771595;80;21025;-70
2021/10/23 07:05:29;;;;;;;21.77;7.80;;;;;;;8.76;59.32;96148.22;1769133;80;21093;-69
2021/10/23 07:07:55;;;;;;;17.53;7.00;;;;;;;8.79;60.01;96145.58;1769715;80;21516;-69
2021/10/23 07:10:22;;;;;;;7.17;3.10;;;;;;;8.84;59.46;96141.17;1767942;80;21026;-69
2021/10/23 07:12:49;;;;;;;9.33;3.40;;;;;;;8.87;59.50;96136.80;1763856;80;20974;-69
2021/10/23 07:15:15;;;;;;;16.50;6.07;;;;;;;8.99;59.13;96134.54;1769742;80;21003;-69
2021/10/23 07:17:42;;;;;;;11.80;4.03;;;;;;;9.08;59.13;96137.59;1775671;80;21017;-69
2021/10/23 07:20:11;;;;;;;6.87;2.20;;;;;;;9.18;59.85;96134.04;1772619;81;21058;-69
2021/10/23 07:22:38;;;;;;;4.23;1.93;;;;;;;9.26;57.69;96128.29;1772043;80;21864;-69
2021/10/23 07:25:06;;;;;;;4.37;1.83;;;;;;;9.38;56.76;96136.58;1773997;81;21037;-70
2021/10/23 07:27:34;;;;;;;10.20;7.77;;;;;;;9.50;56.62;96127.75;1765680;80;21539;-69
2021/10/23 07:30:02;;;;;;;38.47;26.23;;;;;;;9.61;54.17;96132.49;1773614;80;21066;-69
2021/10/23 07:32:29;;;;;;;6.90;4.97;;;;;;;9.73;53.81;96142.09;1770453;81;21545;-69
2021/10/23 07:34:55;;;;;;;9.30;7.30;;;;;;;9.72;49.06;96141.19;1768048;80;21022;-70
2021/10/23 07:37:22;;;;;;;2.43;1.53;;;;;;;9.84;49.53;96144.20;1775469;81;21051;-70
2021/10/23 07:39:48;;;;;;;3.63;1.80;;;;;;;9.99;50.50;96147.61;1771438;80;21063;-69
2021/10/23 07:42:15;;;;;;;8.40;3.83;;;;;;;10.12;49.84;96152.77;1774335;80;21009;-70
2021/10/23 07:44:42;;;;;;;3.67;1.90;;;;;;;10.20;50.45;96150.06;1768974;80;21062;-70
2021/10/23 07:47:10;;;;;;;13.43;4.17;;;;;;;10.29;49.23;96159.27;1777060;80;21029;-69
2021/10/23 07:49:37;;;;;;;5.97;2.57;;;;;;;10.31;49.54;96163.22;1770734;80;20998;-69
2021/10/23 07:52:04;;;;;;;9.20;3.30;;;;;;;10.31;50.30;96169.36;1773181;81;20995;-70
2021/10/23 07:54:31;;;;;;;3.33;1.40;;;;;;;10.33;50.90;96187.38;1776618;80;20986;-68
2021/10/23 07:56:59;;;;;;;3.00;1.87;;;;;;;10.39;49.91;96182.04;1771146;80;21027;-68
2021/10/23 07:59:26;;;;;;;2.57;1.70;;;;;;;10.45;50.50;96179.78;1767549;80;21009;-69
2021/10/23 08:02:04;;;;;;;3.90;1.70;;;;;;;10.56;49.87;96176.63;1770511;80;21058;-69
2021/10/23 08:04:31;;;;;;;3.87;1.50;;;;;;;10.66;48.66;96180.05;1745728;81;21006;-69
2021/10/23 08:07:04;;;;;;;6.43;2.63;;;;;;;10.73;47.47;96179.53;1775985;81;21481;-69
2021/10/23 08:09:33;;;;;;;5.35;2.27;;;;;;;10.79;47.54;96181.67;1770774;80;20979;-70
2021/10/23 08:12:01;;;;;;;8.45;4.85;;;;;;;10.84;47.17;96179.00;1777188;81;21102;-70
2021/10/23 08:14:29;;;;;;;6.47;1.97;;;;;;;10.98;47.32;96174.42;1770492;80;21330;-70
2021/10/23 08:16:57;;;;;;;4.23;1.50;;;;;;;11.09;46.06;96178.28;1774374;81;21034;-69
2021/10/23 08:19:24;;;;;;;7.20;2.85;;;;;;;11.16;47.23;96177.75;1766175;80;21041;-69
2021/10/23 08:21:51;;;;;;;4.83;2.40;;;;;;;11.24;46.66;96174.59;1771595;80;21094;-70
2021/10/23 08:24:18;;;;;;;5.13;1.60;;;;;;;11.30;47.38;96170.55;1772296;80;21075;-70
2021/10/23 08:26:45;;;;;;;4.47;2.00;;;;;;;11.37;46.89;96176.19;1772068;80;21090;-70
2021/10/23 08:29:13;;;;;;;3.60;1.83;;;;;;;11.47;47.28;96179.59;1769738;81;21018;-69
2021/10/23 08:31:40;;;;;;;6.00;1.90;;;;;;;11.57;46.70;96186.51;1769486;80;21501;-68
2021/10/23 08:34:09;;;;;;;6.53;2.20;;;;;;;11.55;46.05;96186.97;1774608;80;21043;-68
2021/10/23 08:36:36;;;;;;;5.20;3.00;;;;;;;11.55;46.68;96183.46;1768199;80;21012;-69
2021/10/23 08:39:05;;;;;;;3.95;2.20;;;;;;;11.56;46.40;96180.77;1766582;80;20988;-69
2021/10/23 08:41:33;;;;;;;6.58;2.08;;;;;;;11.54;45.19;96184.34;1777597;80;21023;-69
2021/10/23 08:44:07;;;;;;;4.97;2.23;;;;;;;11.54;46.44;96193.16;1767444;80;20990;-69
2021/10/23 08:46:40;;;;;;;6.90;3.00;;;;;;;11.53;45.91;96191.39;1766086;80;21587;-70
2021/10/23 08:49:08;;;;;;;5.30;2.20;;;;;;;11.56;46.71;96203.23;1766790;80;21130;-69
2021/10/23 08:51:35;;;;;;;4.62;1.62;;;;;;;11.69;45.63;96204.86;1766545;80;20989;-70
2021/10/23 08:54:02;;;;;;;16.93;10.77;;;;;;;11.66;45.39;96208.84;1769744;80;21028;-70
2021/10/23 08:56:29;;;;;;;5.72;2.37;;;;;;;11.76;47.34;96213.56;1768031;80;21095;-70
2021/10/23 08:58:56;;;;;;;4.90;1.90;;;;;;;11.84;45.99;96215.67;1769327;80;21000;-70
2021/10/23 09:01:22;;;;;;;3.60;1.60;;;;;;;11.78;44.98;96222.34;1776561;81;20992;-69
2021/10/23 09:03:49;;;;;;;5.40;2.17;;;;;;;11.86;45.46;96221.83;1768216;80;21023;-69
2021/10/23 09:06:31;;;;;;;4.63;1.83;;;;;;;11.95;45.99;96218.66;1764197;80;20974;-68
2021/10/23 09:09:03;;;;;;;4.37;1.80;;;;;;;12.12;45.52;96217.97;1768296;80;21055;-68
2021/10/23 09:11:37;;;;;;;6.35;1.67;;;;;;;12.34;45.35;96214.06;1775657;81;21567;-69
2021/10/23 09:14:31;;;;;;;5.65;1.90;;;;;;;12.58;45.14;96215.05;1769045;80;21022;-69
2021/10/23 09:17:08;;;;;;;5.42;2.27;;;;;;;12.62;45.06;96218.05;1770993;80;21529;-69
2021/10/23 09:19:49;;;;;;;3.65;1.40;;;;;;;12.51;44.38;96224.85;1765692;80;21093;-69
2021/10/23 09:22:36;;;;;;;3.20;1.20;;;;;;;12.38;43.41;96232.57;1764043;80;21070;-69
2021/10/23 09:25:27;;;;;;;4.17;1.30;;;;;;;12.09;41.85;96235.18;1771550;80;21010;-69
2021/10/23 09:28:13;;;;;;;16.65;1.60;;;;;;;12.09;43.17;96224.14;1770335;80;21517;-69
2021/10/23 09:30:44;;;;;;;4.35;1.67;;;;;;;12.02;42.82;96243.67;1776039;81;21053;-69
2021/10/23 09:33:20;;;;;;;5.60;3.25;;;;;;;12.01;43.83;96241.03;1771707;80;21546;-69
2021/10/23 09:35:55;;;;;;;13.53;3.35;;;;;;;12.25;44.11;96231.43;1764430;80;21724;-70
2021/10/23 09:38:25;;;;;;;2.33;1.32;;;;;;;12.64;43.89;96227.72;1771969;80;20979;-70
2021/10/23 09:40:54;;;;;;;3.00;1.40;;;;;;;12.86;42.39;96222.94;1768528;80;21481;-70
2021/10/23 09:43:27;;;;;;;4.10;2.00;;;;;;;12.89;42.20;96214.93;1778505;81;21691;-69
2021/10/23 09:46:02;;;;;;;3.15;1.47;;;;;;;12.87;42.00;96220.70;1741917;81;21589;-69
2021/10/23 09:48:44;;;;;;;5.03;2.12;;;;;;;12.77;41.56;96216.05;1765534;80;21013;-70
2021/10/23 09:51:28;;;;;;;5.45;2.47;;;;;;;12.62;41.71;96212.76;1771820;80;21513;-69
2021/10/23 09:53:59;;;;;;;2.98;1.52;;;;;;;12.57;43.27;96214.16;1771571;80;21525;-69
2021/10/23 09:56:31;;;;;;;3.80;2.00;;;;;;;12.50;42.46;96215.17;1776539;80;21030;-68
2021/10/23 09:59:11;;;;;;;9.55;3.40;;;;;;;12.62;43.36;96219.38;1767669;80;21078;-69
2021/10/23 10:01:43;;;;;;;6.22;3.00;;;;;;;12.81;45.04;96208.91;1772359;80;21038;-68
2021/10/23 10:04:13;;;;;;;5.65;2.90;;;;;;;13.24;44.33;96208.58;1778986;81;21098;-69
2021/10/23 10:06:49;;;;;;;5.95;1.92;;;;;;;13.60;44.45;96201.23;1774507;81;21015;-69
2021/10/23 10:09:22;;;;;;;2.42;1.40;;;;;;;13.98;43.48;96202.64;1772396;80;21106;-69
2021/10/23 10:11:51;;;;;;;4.17;1.30;;;;;;;14.28;40.30;96197.09;1767990;80;21008;-69
2021/10/23 10:14:24;;;;;;;3.98;1.30;;;;;;;14.42;37.93;96204.74;1768543;80;21049;-70
2021/10/23 10:16:55;;;;;;;2.52;1.20;;;;;;;14.80;38.53;96189.67;1768308;80;21534;-70
2021/10/23 10:19:22;;;;;;;2.65;1.22;;;;;;;15.27;40.28;96194.16;1764674;80;21484;-70
2021/10/23 10:21:53;;;;;;;1.87;1.00;;;;;;;15.62;35.79;96200.29;1772103;81;21053;-69
2021/10/23 10:24:28;;;;;;;3.25;0.85;;;;;;;15.27;35.09;96181.77;1778394;80;21130;-70
2021/10/23 10:27:20;;;;;;;1.77;1.17;;;;;;;15.19;34.86;96201.02;1775675;81;21031;-69
2021/10/23 10:29:52;;;;;;;2.85;1.60;;;;;;;15.54;35.43;96185.41;1775410;81;21034;-69
2021/10/23 10:32:26;;;;;;;2.80;1.30;;;;;;;15.86;34.03;96194.30;1778950;81;21029;-69
2021/10/23 10:40:44;;;;;;;1.98;1.10;;;;;;;16.84;33.09;96191.21;1775578;80;21038;-68
2021/10/23 10:43:12;;;;;;;4.35;1.30;;;;;;;17.13;31.74;96188.47;1765428;80;21098;-67
2021/10/23 10:45:47;;;;;;;3.10;1.37;;;;;;;17.21;32.30;96191.73;1764734;79;21005;-68
2021/10/23 10:48:29;;;;;;;2.15;1.40;;;;;;;17.25;33.76;96183.57;1764290;80;20994;-68
2021/10/23 10:51:14;;;;;;;3.42;1.10;;;;;;;17.71;32.28;96184.59;1772714;81;21659;-67
2021/10/23 10:53:55;;;;;;;1.72;0.78;;;;;;;17.95;29.82;96189.95;1775656;80;21015;-68
2021/10/23 10:56:22;;;;;;;2.42;1.00;;;;;;;17.42;29.77;96190.12;1770894;80;21007;-68
2021/10/23 10:58:56;;;;;;;2.25;0.95;;;;;;;17.18;30.90;96187.38;1773687;80;21018;-68
2021/10/23 11:01:30;;;;;;;4.12;1.12;;;;;;;17.40;30.79;96178.62;1772537;80;21006;-68
2021/10/23 11:04:05;;;;;;;3.90;1.98;;;;;;;17.43;30.10;96178.03;1768379;80;21014;-67
2021/10/23 11:06:37;;;;;;;5.40;2.42;;;;;;;17.48;31.22;96176.07;1773692;80;21164;-67
2021/10/23 11:09:20;;;;;;;15.32;6.55;;;;;;;17.84;31.41;96170.34;1775954;81;21087;-68
2021/10/23 11:11:54;;;;;;;6.65;3.00;;;;;;;18.10;30.55;96173.34;1772441;80;21022;-67
2021/10/23 11:14:31;;;;;;;2.30;1.55;;;;;;;18.47;30.69;96174.56;1759378;81;21059;-66
2021/10/23 11:17:03;;;;;;;1.37;0.95;;;;;;;18.80;29.51;96169.66;1767065;80;21927;-67
2021/10/23 11:19:48;;;;;;;4.15;2.10;;;;;;;18.52;27.19;96165.00;1762307;80;22497;-67
2021/10/23 11:22:23;;;;;;;1.50;1.20;;;;;;;18.30;28.07;96166.34;1778231;81;21031;-67
2021/10/23 11:25:05;;;;;;;3.02;1.12;;;;;;;18.76;29.08;96161.82;1779680;81;21006;-67
2021/10/23 11:27:44;;;;;;;1.75;1.20;;;;;;;18.80;29.73;96168.80;1777634;81;21010;-67
2021/10/23 11:30:23;;;;;;;2.25;0.98;;;;;;;19.01;29.86;96163.00;1769292;80;21045;-68
2021/10/23 11:33:03;;;;;;;1.35;1.05;;;;;;;18.76;27.16;96161.82;1770353;80;21027;-68
2021/10/23 11:35:49;;;;;;;2.92;1.10;;;;;;;19.03;28.80;96171.83;1779770;80;21094;-68
2021/10/23 11:38:22;;;;;;;1.32;0.85;;;;;;;19.67;29.16;96164.12;1777480;81;21042;-68
2021/10/23 11:40:59;;;;;;;1.80;0.95;;;;;;;19.70;26.31;96172.48;1765822;80;21136;-68
2021/10/23 11:43:33;;;;;;;3.70;1.00;;;;;;;19.99;27.40;96156.43;1768541;79;21353;-68
2021/10/23 11:46:01;;;;;;;10.00;4.78;;;;;;;20.00;26.58;96164.38;1770950;80;21012;-68
2021/10/23 11:48:28;;;;;;;3.75;1.75;;;;;;;20.31;26.38;96164.29;1764002;79;21076;-68
2021/10/23 11:50:56;;;;;;;2.05;0.80;;;;;;;20.38;27.58;96158.14;1771400;80;21182;-67